Time;durP1;ratioP1;P1;durP2;ratioP2;P2;SDS_P1;SDS_P2;PMS_P1;PMS_P2;Temp;Humidity;BMP_temperature;BMP_pressure;BME280_temperature;BME280_humidity;BME280_pressure;Samples;Min_cycle;Max_cycle;Signal;HPM_P1;HPM_P2
2021/08/15 00:01:50;;;;;;;12.70;8.68;;;15.70;99.90;;;;;;5095835;28;20062;-77
2021/08/15 00:04:16;;;;;;;11.90;8.50;;;15.80;99.90;;;;;;5095454;28;20074;-79
2021/08/15 00:06:41;;;;;;;12.10;8.77;;;15.90;99.90;;;;;;5095593;28;20027;-78
2021/08/15 00:09:07;;;;;;;11.27;8.38;;;15.90;99.90;;;;;;5095954;28;20460;-69
2021/08/15 00:11:33;;;;;;;10.82;8.15;;;16.00;99.90;;;;;;5093728;28;20032;-76
2021/08/15 00:13:59;;;;;;;13.55;9.40;;;15.90;99.90;;;;;;5095698;28;20071;-79
2021/08/15 00:16:25;;;;;;;12.00;8.43;;;15.90;99.90;;;;;;5095807;28;20024;-78
2021/08/15 00:18:51;;;;;;;12.77;8.75;;;15.90;99.90;;;;;;5093320;28;20081;-84
2021/08/15 00:21:16;;;;;;;11.38;8.85;;;15.80;99.90;;;;;;5094273;28;20020;-80
2021/08/15 00:23:42;;;;;;;13.82;8.38;;;15.80;99.90;;;;;;5094003;28;20034;-74
2021/08/15 00:26:07;;;;;;;16.08;8.95;;;15.80;99.90;;;;;;5095124;28;20026;-82
2021/08/15 00:28:33;;;;;;;12.70;8.65;;;15.70;99.90;;;;;;5095484;28;20046;-79
2021/08/15 00:30:59;;;;;;;10.05;8.00;;;15.70;99.90;;;;;;5095109;28;20099;-70
2021/08/15 00:33:25;;;;;;;11.02;8.40;;;15.70;99.90;;;;;;5093349;28;20464;-74
2021/08/15 00:35:50;;;;;;;11.13;7.80;;;15.70;99.90;;;;;;5095038;28;20396;-75
2021/08/15 00:38:16;;;;;;;11.95;8.15;;;15.70;99.90;;;;;;5095441;28;20028;-75
2021/08/15 00:40:42;;;;;;;13.38;8.63;;;15.70;99.90;;;;;;5093051;28;20020;-70
2021/08/15 00:43:08;;;;;;;12.93;9.32;;;15.70;99.90;;;;;;5094010;28;20400;-69
2021/08/15 00:45:34;;;;;;;10.52;8.20;;;15.70;99.90;;;;;;5094454;28;20103;-72
2021/08/15 00:48:10;;;;;;;11.13;8.32;;;15.80;99.90;;;;;;5094245;28;20110;-72
2021/08/15 00:50:37;;;;;;;11.18;8.25;;;15.80;99.90;;;;;;5095005;28;20024;-69
2021/08/15 00:53:03;;;;;;;12.93;8.40;;;15.90;99.90;;;;;;5094917;28;20093;-69
2021/08/15 00:55:28;;;;;;;12.25;8.40;;;15.90;99.90;;;;;;5094643;28;20070;-77
2021/08/15 00:57:55;;;;;;;11.38;8.20;;;16.00;99.90;;;;;;5094836;28;20375;-74
2021/08/15 01:00:20;;;;;;;13.80;8.25;;;16.10;99.90;;;;;;5093805;28;20032;-79
2021/08/15 01:02:50;;;;;;;12.43;9.00;;;16.20;99.90;;;;;;5093996;28;20020;-79
2021/08/15 01:05:17;;;;;;;10.75;7.97;;;16.30;99.90;;;;;;5094919;28;20024;-79
2021/08/15 01:07:42;;;;;;;12.20;9.02;;;16.40;99.90;;;;;;5093705;28;20047;-83
2021/08/15 01:10:11;;;;;;;12.35;8.05;;;16.40;99.90;;;;;;5094727;28;20024;-79
2021/08/15 01:12:37;;;;;;;11.50;8.18;;;16.40;99.90;;;;;;5094803;28;20044;-80
2021/08/15 01:15:04;;;;;;;14.27;9.15;;;16.40;99.90;;;;;;5093603;28;20032;-74
2021/08/15 01:17:29;;;;;;;11.93;8.70;;;16.50;99.90;;;;;;5094443;28;20024;-71
2021/08/15 01:19:56;;;;;;;12.15;8.55;;;16.50;99.90;;;;;;5094337;28;20028;-80
2021/08/15 01:22:27;;;;;;;11.25;8.55;;;16.40;99.90;;;;;;5093780;28;20016;-78
2021/08/15 01:24:53;;;;;;;12.60;8.90;;;16.40;99.90;;;;;;5094228;28;20035;-78
2021/08/15 01:27:20;;;;;;;22.15;8.98;;;16.50;99.90;;;;;;5094431;28;20020;-69
2021/08/15 01:29:47;;;;;;;11.27;8.20;;;16.50;99.90;;;;;;5093337;28;20105;-80
2021/08/15 01:32:16;;;;;;;12.88;8.90;;;16.40;99.90;;;;;;5094204;28;20103;-82
2021/08/15 01:34:41;;;;;;;10.30;8.32;;;16.40;99.90;;;;;;5094027;28;20158;-82
2021/08/15 01:37:10;;;;;;;10.73;9.18;;;16.30;99.90;;;;;;5093582;28;20459;-76
2021/08/15 01:39:41;;;;;;;11.10;8.27;;;16.20;99.90;;;;;;5094377;28;20016;-85
2021/08/15 01:42:08;;;;;;;13.63;9.10;;;16.20;99.90;;;;;;5092862;28;20468;-78
2021/08/15 01:44:33;;;;;;;12.70;8.25;;;16.10;99.90;;;;;;5093794;28;20099;-73
2021/08/15 01:46:59;;;;;;;9.32;7.45;;;16.10;99.90;;;;;;5093606;28;20093;-74
2021/08/15 01:49:24;;;;;;;8.68;7.78;;;16.10;99.90;;;;;;5094261;28;20077;-72
2021/08/15 01:51:50;;;;;;;11.52;8.30;;;16.00;99.90;;;;;;5093122;28;20024;-76
2021/08/15 01:54:16;;;;;;;11.65;7.65;;;16.00;99.90;;;;;;5093913;28;20032;-84
2021/08/15 01:56:41;;;;;;;12.23;8.23;;;16.00;99.90;;;;;;5091848;28;20017;-70
2021/08/15 01:59:07;;;;;;;9.82;7.38;;;16.00;99.90;;;;;;5093851;28;20046;-76
2021/08/15 02:01:32;;;;;;;11.43;8.10;;;16.00;99.90;;;;;;5093644;28;20398;-83
2021/08/15 02:03:58;;;;;;;10.68;8.05;;;16.00;99.90;;;;;;5092864;28;20494;-74
2021/08/15 02:06:23;;;;;;;9.90;7.68;;;16.00;99.90;;;;;;5093857;28;20020;-69
2021/08/15 02:08:50;;;;;;;11.80;8.57;;;16.00;99.90;;;;;;5093433;28;20028;-75
2021/08/15 02:11:17;;;;;;;12.18;7.80;;;16.00;99.90;;;;;;5092844;28;20016;-78
2021/08/15 02:13:43;;;;;;;9.15;7.47;;;16.00;99.90;;;;;;5093398;28;20043;-78
2021/08/15 02:16:08;;;;;;;10.35;7.60;;;16.00;99.90;;;;;;5093525;28;20376;-82
2021/08/15 02:18:34;;;;;;;12.35;8.23;;;15.90;99.90;;;;;;5092619;28;20379;-70
2021/08/15 02:20:59;;;;;;;10.93;7.97;;;15.90;99.90;;;;;;5091745;28;20020;-68
2021/08/15 02:23:25;;;;;;;9.43;7.60;;;15.90;99.90;;;;;;5093464;28;20028;-74
2021/08/15 02:25:50;;;;;;;11.15;8.77;;;15.90;99.90;;;;;;5090991;28;20035;-71
2021/08/15 02:28:16;;;;;;;10.90;7.75;;;16.00;99.90;;;;;;5093301;28;20018;-70
2021/08/15 02:30:41;;;;;;;10.32;7.80;;;16.00;99.90;;;;;;5092761;28;20017;-69
2021/08/15 02:33:07;;;;;;;9.55;7.38;;;16.00;99.90;;;;;;5091100;28;20104;-69
2021/08/15 02:35:33;;;;;;;9.23;7.15;;;16.10;99.90;;;;;;5093105;28;20035;-72
2021/08/15 02:37:59;;;;;;;9.10;7.28;;;16.10;99.90;;;;;;5092811;28;20069;-72
2021/08/15 02:40:25;;;;;;;20.85;7.70;;;16.00;99.90;;;;;;5091071;28;20460;-70
2021/08/15 02:42:52;;;;;;;11.77;7.90;;;16.00;99.90;;;;;;5092773;28;20023;-68
2021/08/15 02:45:19;;;;;;;9.02;6.72;;;16.00;99.90;;;;;;5092989;28;20472;-69
2021/08/15 02:47:45;;;;;;;10.73;7.40;;;15.90;99.90;;;;;;5090757;28;20027;-70
2021/08/15 02:50:12;;;;;;;9.60;7.13;;;15.90;99.90;;;;;;5091462;28;20020;-69
2021/08/15 02:52:38;;;;;;;9.60;7.38;;;15.80;99.90;;;;;;5093142;28;20016;-71
2021/08/15 02:55:05;;;;;;;10.57;7.47;;;15.80;99.90;;;;;;5091807;28;20043;-73
2021/08/15 02:57:30;;;;;;;12.70;7.43;;;15.70;99.90;;;;;;5093007;28;20099;-70
2021/08/15 02:59:56;;;;;;;10.65;8.27;;;15.70;99.90;;;;;;5092519;28;20486;-69
2021/08/15 03:02:22;;;;;;;10.45;7.80;;;15.60;99.90;;;;;;5092253;28;20376;-68
2021/08/15 03:04:47;;;;;;;9.10;7.53;;;15.60;99.90;;;;;;5092319;28;20024;-68
2021/08/15 03:07:14;;;;;;;11.43;8.07;;;15.60;99.90;;;;;;5092228;28;20073;-68
2021/08/15 03:09:40;;;;;;;10.55;7.15;;;15.60;99.90;;;;;;5094475;28;20048;-68
2021/08/15 03:12:05;;;;;;;10.32;7.05;;;15.60;99.90;;;;;;5096616;28;20577;-68
2021/08/15 03:14:31;;;;;;;10.68;7.40;;;15.60;99.90;;;;;;5094729;28;20032;-69
2021/08/15 03:16:57;;;;;;;9.73;6.90;;;15.50;99.90;;;;;;5096409;28;20077;-69
2021/08/15 03:19:22;;;;;;;10.45;7.00;;;15.50;99.90;;;;;;5096643;28;20027;-68
2021/08/15 03:21:48;;;;;;;11.68;6.88;;;15.50;99.90;;;;;;5095893;28;20017;-68
2021/08/15 03:24:14;;;;;;;11.32;7.25;;;15.50;99.90;;;;;;5095393;28;20372;-69
2021/08/15 03:26:44;;;;;;;10.95;7.80;;;15.40;99.90;;;;;;5096622;28;20031;-69
2021/08/15 03:29:12;;;;;;;17.38;6.82;;;15.30;99.90;;;;;;5096044;28;20036;-70
2021/08/15 03:31:37;;;;;;;10.82;7.15;;;15.30;99.90;;;;;;5096405;28;20021;-68
2021/08/15 03:34:03;;;;;;;10.30;8.00;;;15.30;99.90;;;;;;5096086;28;20365;-69
2021/08/15 03:36:28;;;;;;;11.63;7.13;;;15.20;99.90;;;;;;5095838;28;20016;-68
2021/08/15 03:38:54;;;;;;;11.85;6.63;;;15.10;99.90;;;;;;5096170;28;20028;-68
2021/08/15 03:41:19;;;;;;;11.10;7.85;;;15.10;99.90;;;;;;5096227;28;20024;-73
2021/08/15 03:43:45;;;;;;;11.00;7.53;;;15.10;99.90;;;;;;5095379;28;20047;-68
2021/08/15 03:46:10;;;;;;;9.63;7.65;;;15.10;99.90;;;;;;5096339;28;20020;-68
2021/08/15 03:48:36;;;;;;;10.15;7.80;;;15.10;99.90;;;;;;5094813;28;20027;-68
2021/08/15 03:51:01;;;;;;;9.10;7.15;;;15.10;99.90;;;;;;5095029;28;20025;-69
2021/08/15 03:53:27;;;;;;;11.48;7.30;;;15.10;99.90;;;;;;5096094;28;20050;-69
2021/08/15 03:55:52;;;;;;;14.15;8.30;;;15.10;99.90;;;;;;5096034;28;20472;-69
2021/08/15 03:58:18;;;;;;;10.45;7.10;;;15.10;99.90;;;;;;5095155;28;20032;-71
2021/08/15 04:00:43;;;;;;;9.57;7.15;;;15.10;99.90;;;;;;5095475;28;20028;-70
2021/08/15 04:03:10;;;;;;;10.77;7.97;;;15.10;99.90;;;;;;5095908;28;20024;-71
2021/08/15 04:05:37;;;;;;;11.48;7.65;;;15.00;99.90;;;;;;5093804;28;20026;-71
2021/08/15 04:08:05;;;;;;;10.55;7.28;;;15.00;99.90;;;;;;5094170;28;20023;-69
2021/08/15 04:10:30;;;;;;;13.45;8.48;;;15.10;99.90;;;;;;5095109;28;20060;-73
2021/08/15 04:12:56;;;;;;;10.98;8.35;;;15.10;99.90;;;;;;5095220;28;20067;-75
2021/08/15 04:15:21;;;;;;;11.07;7.93;;;15.10;99.90;;;;;;5094459;28;20035;-71
2021/08/15 04:17:47;;;;;;;10.95;8.07;;;15.10;99.90;;;;;;5094657;28;20069;-70
2021/08/15 04:20:13;;;;;;;11.63;8.73;;;15.10;99.90;;;;;;5093976;28;20062;-71
2021/08/15 04:22:39;;;;;;;11.68;7.78;;;15.10;99.90;;;;;;5094448;28;20115;-72
2021/08/15 04:25:05;;;;;;;11.90;8.20;;;15.10;99.90;;;;;;5094911;28;20027;-75
2021/08/15 04:27:31;;;;;;;14.60;8.05;;;15.20;99.90;;;;;;5095477;28;20028;-72
2021/08/15 04:29:56;;;;;;;12.40;8.38;;;15.20;99.90;;;;;;5095315;28;20021;-75
2021/08/15 04:32:22;;;;;;;13.20;8.32;;;15.20;99.90;;;;;;5093546;28;20023;-73
2021/08/15 04:34:47;;;;;;;13.02;8.20;;;15.30;99.90;;;;;;5094947;28;20395;-71
2021/08/15 04:37:13;;;;;;;12.95;8.65;;;15.30;99.90;;;;;;5093971;28;20031;-72
2021/08/15 04:39:39;;;;;;;13.45;8.35;;;15.30;99.90;;;;;;5094762;28;20027;-69
2021/08/15 04:42:04;;;;;;;10.98;8.45;;;15.30;99.90;;;;;;5093660;28;20020;-69
2021/08/15 04:44:30;;;;;;;11.48;8.98;;;15.40;99.90;;;;;;5095228;28;20028;-69
2021/08/15 04:46:55;;;;;;;12.88;8.68;;;15.40;99.90;;;;;;5094322;28;20460;-69
2021/08/15 04:49:21;;;;;;;11.25;8.93;;;15.40;99.90;;;;;;5095065;28;20031;-73
2021/08/15 04:51:46;;;;;;;12.25;10.82;;;15.50;99.90;;;;;;5094709;28;20024;-69
2021/08/15 04:54:12;;;;;;;11.82;9.00;;;15.50;99.90;;;;;;5094202;28;20032;-70
2021/08/15 04:56:38;;;;;;;12.18;9.98;;;15.60;99.90;;;;;;5095184;28;20016;-72
2021/08/15 04:59:03;;;;;;;13.07;9.70;;;15.60;99.90;;;;;;5094703;28;20028;-69
2021/08/15 05:01:29;;;;;;;11.80;9.38;;;15.70;99.90;;;;;;5092824;28;20020;-69
2021/08/15 05:03:54;;;;;;;11.95;9.55;;;15.70;99.90;;;;;;5094596;28;20020;-69
2021/08/15 05:06:20;;;;;;;11.73;10.13;;;15.80;99.90;;;;;;5094757;28;20023;-69
2021/08/15 05:08:45;;;;;;;12.45;10.15;;;15.80;99.90;;;;;;5093749;28;20032;-70
2021/08/15 05:11:11;;;;;;;15.65;11.05;;;15.90;99.90;;;;;;5094457;28;20027;-70
2021/08/15 05:13:36;;;;;;;13.25;10.60;;;15.90;99.90;;;;;;5094417;28;20032;-72
2021/08/15 05:16:02;;;;;;;15.15;11.23;;;16.00;99.90;;;;;;5094080;28;20082;-70
2021/08/15 05:18:28;;;;;;;13.77;11.15;;;16.00;99.90;;;;;;5093162;28;20031;-78
2021/08/15 05:20:53;;;;;;;15.52;10.57;;;16.00;99.90;;;;;;5093559;28;20056;-70
2021/08/15 05:23:19;;;;;;;13.52;10.60;;;16.10;99.90;;;;;;5094476;28;20022;-70
2021/08/15 05:25:46;;;;;;;13.20;10.75;;;16.10;99.90;;;;;;5094052;28;20035;-70
2021/08/15 05:28:13;;;;;;;14.60;11.60;;;16.20;99.90;;;;;;5093672;28;20035;-71
2021/08/15 05:30:38;;;;;;;14.30;10.70;;;16.20;99.90;;;;;;5094110;28;20028;-75
2021/08/15 05:33:04;;;;;;;15.40;11.65;;;16.30;99.90;;;;;;5093275;28;20575;-70
2021/08/15 05:35:30;;;;;;;18.90;12.18;;;16.30;99.90;;;;;;5093482;28;20093;-69
2021/08/15 05:37:55;;;;;;;14.43;11.98;;;16.40;99.90;;;;;;5093864;28;20546;-70
2021/08/15 05:40:21;;;;;;;13.52;11.10;;;16.40;99.90;;;;;;5094080;28;20032;-70
2021/08/15 05:42:47;;;;;;;13.30;11.60;;;16.40;99.90;;;;;;5093152;28;20020;-74
2021/08/15 05:45:12;;;;;;;16.77;13.40;;;16.40;99.90;;;;;;5094035;28;20020;-70
2021/08/15 05:47:38;;;;;;;14.73;12.00;;;16.40;99.90;;;;;;5093940;28;20047;-74
2021/08/15 05:50:05;;;;;;;13.65;12.15;;;16.40;99.90;;;;;;5093021;28;20028;-73
2021/08/15 05:52:31;;;;;;;14.05;11.13;;;16.40;99.90;;;;;;5094017;28;20027;-70
2021/08/15 05:54:58;;;;;;;14.15;12.15;;;16.50;99.90;;;;;;5092171;28;20028;-77
2021/08/15 05:57:23;;;;;;;15.88;12.73;;;16.50;99.90;;;;;;5093061;28;20476;-71
2021/08/15 05:59:49;;;;;;;14.63;12.13;;;16.60;99.90;;;;;;5093439;28;20023;-70
2021/08/15 06:02:15;;;;;;;17.40;12.75;;;16.60;99.90;;;;;;5092452;28;20020;-72
2021/08/15 06:04:40;;;;;;;15.32;11.65;;;16.80;99.90;;;;;;5092972;28;20554;-70
2021/08/15 06:07:06;;;;;;;19.80;12.93;;;16.90;99.90;;;;;;5092344;28;20024;-78
2021/08/15 06:09:31;;;;;;;19.35;13.02;;;17.10;99.90;;;;;;5093479;28;20032;-74
2021/08/15 06:12:02;;;;;;;16.83;13.35;;;17.20;99.90;;;;;;5092513;28;20135;-73
2021/08/15 06:14:28;;;;;;;14.45;12.70;;;17.30;99.90;;;;;;5093537;28;20034;-70
2021/08/15 06:16:53;;;;;;;15.85;12.88;;;17.40;99.90;;;;;;5093121;28;20103;-70
2021/08/15 06:19:19;;;;;;;17.92;12.50;;;17.50;99.90;;;;;;5092947;28;20172;-73
2021/08/15 06:21:44;;;;;;;17.00;13.88;;;17.70;99.90;;;;;;5093139;28;20042;-78
2021/08/15 06:24:10;;;;;;;22.40;13.50;;;17.80;99.90;;;;;;5091376;28;20036;-70
2021/08/15 06:26:35;;;;;;;18.23;13.45;;;17.90;99.90;;;;;;5093259;28;20044;-75
2021/08/15 06:29:01;;;;;;;17.42;13.43;;;17.90;99.90;;;;;;5092925;28;20478;-77
2021/08/15 06:31:27;;;;;;;14.45;12.95;;;17.90;99.90;;;;;;5092379;28;20024;-77
2021/08/15 06:33:52;;;;;;;16.20;13.95;;;18.00;99.90;;;;;;5092917;28;20039;-70
2021/08/15 06:36:18;;;;;;;18.40;13.98;;;18.10;99.90;;;;;;5093161;28;20050;-73
2021/08/15 06:38:43;;;;;;;14.75;12.75;;;18.10;99.90;;;;;;5092186;28;20020;-70
2021/08/15 06:41:09;;;;;;;16.88;13.63;;;18.10;99.90;;;;;;5091645;28;20031;-71
2021/08/15 06:43:35;;;;;;;17.92;13.85;;;18.20;99.90;;;;;;5090791;28;20020;-69
2021/08/15 06:46:00;;;;;;;16.75;13.75;;;18.30;99.90;;;;;;5091932;28;20054;-69
2021/08/15 06:48:26;;;;;;;16.00;13.40;;;18.30;99.90;;;;;;5092972;28;20069;-69
2021/08/15 06:50:57;;;;;;;15.75;13.48;;;18.30;99.90;;;;;;5092610;28;20030;-71
2021/08/15 06:53:23;;;;;;;16.05;13.23;;;18.30;99.90;;;;;;5092344;28;20473;-69
2021/08/15 06:55:49;;;;;;;18.73;13.27;;;18.30;99.90;;;;;;5091193;28;20118;-75
2021/08/15 06:58:16;;;;;;;18.13;13.65;;;18.30;99.90;;;;;;5093111;28;20103;-69
2021/08/15 07:00:41;;;;;;;16.55;14.65;;;18.30;99.90;;;;;;5091960;28;20102;-74
2021/08/15 07:03:07;;;;;;;17.20;14.13;;;18.30;99.90;;;;;;5092905;28;20488;-70
2021/08/15 07:05:33;;;;;;;18.35;14.48;;;18.30;99.90;;;;;;5092867;28;20465;-71
2021/08/15 07:07:58;;;;;;;15.63;13.93;;;18.40;99.90;;;;;;5092064;28;20089;-70
2021/08/15 07:10:24;;;;;;;17.65;14.00;;;18.40;99.90;;;;;;5092719;28;20372;-71
2021/08/15 07:12:53;;;;;;;16.20;13.05;;;18.50;99.90;;;;;;5092290;28;20071;-72
2021/08/15 07:15:20;;;;;;;17.33;12.40;;;18.60;99.90;;;;;;5092112;28;20380;-70
2021/08/15 07:17:45;;;;;;;17.50;13.82;;;18.80;99.90;;;;;;5092519;28;20025;-69
2021/08/15 07:20:12;;;;;;;14.38;12.45;;;18.90;99.90;;;;;;5092731;28;20020;-70
2021/08/15 07:22:37;;;;;;;14.10;12.43;;;18.90;99.90;;;;;;5092549;28;20016;-71
2021/08/15 07:25:04;;;;;;;15.02;12.35;;;18.90;99.90;;;;;;5092315;28;20028;-74
2021/08/15 07:27:31;;;;;;;15.25;11.90;;;18.90;99.90;;;;;;5092266;28;20028;-76
2021/08/15 07:29:56;;;;;;;13.27;10.57;;;18.90;99.90;;;;;;5092242;28;20478;-71
2021/08/15 07:32:22;;;;;;;14.93;11.48;;;18.80;99.90;;;;;;5092677;28;20028;-74
2021/08/15 07:34:47;;;;;;;12.77;10.05;;;18.80;99.90;;;;;;5091635;28;20060;-77
2021/08/15 07:37:13;;;;;;;14.93;11.23;;;18.90;99.90;;;;;;5091298;28;20460;-69
2021/08/15 07:39:39;;;;;;;13.60;10.43;;;19.00;99.90;;;;;;5092389;28;20111;-69
2021/08/15 07:42:05;;;;;;;13.50;10.68;;;19.20;99.90;;;;;;5091664;28;20021;-69
2021/08/15 07:44:30;;;;;;;13.65;10.57;;;19.40;99.90;;;;;;5092570;28;20110;-70
2021/08/15 07:46:56;;;;;;;14.23;10.00;;;19.70;99.90;;;;;;5092168;28;20016;-70
2021/08/15 07:49:21;;;;;;;14.63;9.73;;;19.90;99.90;;;;;;5090705;28;20030;-68
2021/08/15 07:51:47;;;;;;;16.63;10.27;;;20.00;99.90;;;;;;5090576;28;20103;-69
2021/08/15 07:54:12;;;;;;;12.90;9.45;;;20.10;99.90;;;;;;5092260;28;20036;-85
2021/08/15 07:56:38;;;;;;;11.73;9.73;;;20.30;99.90;;;;;;5094695;28;20016;-73
2021/08/15 07:59:03;;;;;;;12.57;9.68;;;20.50;99.90;;;;;;5095832;28;20532;-70
2021/08/15 08:01:29;;;;;;;13.55;8.75;;;20.60;99.90;;;;;;5096286;28;20024;-69
2021/08/15 08:03:54;;;;;;;16.30;10.80;;;20.70;99.90;;;;;;5095280;28;20024;-70
2021/08/15 08:06:20;;;;;;;12.60;9.52;;;20.90;99.90;;;;;;5095873;28;20043;-72
2021/08/15 08:08:45;;;;;;;12.10;8.07;;;20.90;99.90;;;;;;5095647;28;20025;-71
2021/08/15 08:11:11;;;;;;;13.15;9.30;;;20.90;99.90;;;;;;5093664;28;20464;-69
2021/08/15 08:13:36;;;;;;;12.90;8.20;;;21.00;99.90;;;;;;5095646;28;20036;-70
2021/08/15 08:16:02;;;;;;;11.60;8.45;;;20.90;99.90;;;;;;5094221;28;20031;-69
2021/08/15 08:18:27;;;;;;;10.07;8.23;;;20.70;99.90;;;;;;5095217;28;20035;-69
2021/08/15 08:20:53;;;;;;;12.98;8.80;;;20.60;99.90;;;;;;5095419;28;20023;-69
2021/08/15 08:23:19;;;;;;;12.80;7.90;;;20.40;99.90;;;;;;5095604;28;20028;-72
2021/08/15 08:25:46;;;;;;;13.73;9.38;;;20.20;99.90;;;;;;5094483;28;20081;-69
2021/08/15 08:28:13;;;;;;;11.95;10.07;;;20.10;99.90;;;;;;5095458;28;20024;-69
2021/08/15 08:30:39;;;;;;;15.15;9.40;;;20.00;99.90;;;;;;5094705;28;20472;-72
2021/08/15 08:33:04;;;;;;;13.18;8.65;;;20.00;99.90;;;;;;5093807;28;20468;-70
2021/08/15 08:35:31;;;;;;;12.25;8.90;;;20.00;99.90;;;;;;5095335;28;20024;-69
2021/08/15 08:37:56;;;;;;;12.05;7.88;;;20.10;99.90;;;;;;5094217;28;20030;-69
2021/08/15 08:40:22;;;;;;;11.95;9.02;;;20.20;99.90;;;;;;5095258;28;20028;-74
2021/08/15 08:42:48;;;;;;;11.32;7.68;;;20.30;99.90;;;;;;5093537;28;20529;-70
2021/08/15 08:45:18;;;;;;;10.48;8.15;;;20.60;99.90;;;;;;5094495;28;20032;-69
2021/08/15 08:47:44;;;;;;;14.75;9.27;;;20.80;99.90;;;;;;5094763;28;20020;-68
2021/08/15 08:50:11;;;;;;;11.23;8.02;;;21.00;99.90;;;;;;5094916;28;20024;-69
2021/08/15 08:52:37;;;;;;;12.10;8.50;;;21.30;99.90;;;;;;5094402;28;20043;-69
2021/08/15 08:55:04;;;;;;;12.35;8.55;;;21.50;99.90;;;;;;5094560;28;20040;-69
2021/08/15 08:57:30;;;;;;;13.82;8.32;;;21.60;99.90;;;;;;5093436;28;20016;-69
2021/08/15 08:59:56;;;;;;;11.48;7.75;;;21.60;99.90;;;;;;5093877;28;20526;-70
2021/08/15 09:02:21;;;;;;;10.05;7.00;;;21.60;99.90;;;;;;5093684;28;20047;-74
2021/08/15 09:04:47;;;;;;;10.77;6.60;;;21.70;99.90;;;;;;5094659;28;20024;-72
2021/08/15 09:07:15;;;;;;;11.63;6.57;;;21.70;99.90;;;;;;5093013;28;20544;-70
2021/08/15 09:09:53;;;;;;;14.40;7.65;;;21.60;99.90;;;;;;5094409;28;20473;-70
2021/08/15 09:12:20;;;;;;;9.13;6.63;;;21.50;99.90;;;;;;5094412;28;20551;-72
2021/08/15 09:14:45;;;;;;;11.40;6.90;;;21.30;99.90;;;;;;5092320;28;20069;-70
2021/08/15 09:17:11;;;;;;;12.10;7.47;;;21.20;99.90;;;;;;5094681;28;20020;-69
2021/08/15 09:19:49;;;;;;;11.70;6.38;;;21.10;99.90;;;;;;5093027;28;20101;-70
2021/08/15 09:22:28;;;;;;;9.25;6.35;;;21.20;99.90;;;;;;5094451;28;20017;-69
2021/08/15 09:25:18;;;;;;;10.68;5.88;;;21.10;99.90;;;;;;5094049;28;20016;-68
2021/08/15 09:27:53;;;;;;;11.25;7.50;;;21.10;99.90;;;;;;5093360;28;20379;-69
2021/08/15 09:30:27;;;;;;;11.68;6.70;;;21.20;99.90;;;;;;5094485;28;20472;-70
2021/08/15 09:33:09;;;;;;;13.02;6.65;;;21.20;99.90;;;;;;5094035;28;20027;-68
2021/08/15 09:35:35;;;;;;;10.30;6.65;;;21.30;99.90;;;;;;5093534;28;20086;-72
2021/08/15 09:38:04;;;;;;;12.20;6.30;;;21.30;99.90;;;;;;5093893;28;20499;-69
2021/08/15 09:40:33;;;;;;;12.02;5.93;;;21.50;99.90;;;;;;5094093;28;20065;-69
2021/08/15 09:43:00;;;;;;;14.55;6.97;;;21.60;99.90;;;;;;5093244;28;20041;-69
2021/08/15 09:45:42;;;;;;;7.22;5.22;;;21.70;99.90;;;;;;5094114;28;20107;-70
2021/08/15 09:48:33;;;;;;;11.82;5.75;;;21.90;99.90;;;;;;5093529;28;20107;-69
2021/08/15 09:51:22;;;;;;;11.00;5.50;;;22.00;99.90;;;;;;5093564;28;20024;-70
2021/08/15 09:53:53;;;;;;;7.78;5.15;;;22.20;99.90;;;;;;5093538;28;20111;-70
2021/08/15 09:56:36;;;;;;;8.98;4.85;;;22.30;99.90;;;;;;5093006;28;20107;-74
2021/08/15 09:59:20;;;;;;;7.18;4.60;;;22.50;99.90;;;;;;5093556;28;20028;-73
2021/08/15 10:01:50;;;;;;;9.23;5.25;;;22.60;99.90;;;;;;5092169;28;20024;-73
2021/08/15 10:04:18;;;;;;;11.23;5.05;;;22.60;99.90;;;;;;5093016;28;20406;-70
2021/08/15 10:06:45;;;;;;;7.72;4.55;;;22.60;99.90;;;;;;5093139;28;20028;-70
2021/08/15 10:09:11;;;;;;;10.93;5.72;;;22.60;99.90;;;;;;5091541;28;20032;-73
2021/08/15 10:11:39;;;;;;;9.32;5.10;;;22.60;99.70;;;;;;5091950;28;20044;-70
2021/08/15 10:14:06;;;;;;;10.18;5.63;;;22.50;99.40;;;;;;5091816;28;20415;-72
2021/08/15 10:16:46;;;;;;;8.10;4.70;;;22.50;99.40;;;;;;5091595;28;20020;-78
2021/08/15 10:19:15;;;;;;;9.82;4.30;;;22.50;99.80;;;;;;5093335;28;20024;-73
2021/08/15 10:21:44;;;;;;;8.57;4.85;;;22.50;99.00;;;;;;5093078;28;20107;-73
2021/08/15 10:24:12;;;;;;;6.75;4.45;;;22.50;98.70;;;;;;5092694;28;20023;-75
2021/08/15 10:26:48;;;;;;;6.15;4.28;;;22.50;98.90;;;;;;5093197;28;20051;-73
2021/08/15 10:29:33;;;;;;;7.45;4.47;;;22.40;99.00;;;;;;5093217;28;20032;-70
2021/08/15 10:32:22;;;;;;;6.65;4.28;;;22.40;99.20;;;;;;5092345;28;20065;-72
2021/08/15 10:34:51;;;;;;;6.57;3.78;;;22.40;99.40;;;;;;5092852;28;20403;-74
2021/08/15 10:37:25;;;;;;;5.00;2.85;;;22.50;98.80;;;;;;5092698;28;20080;-70
2021/08/15 10:39:54;;;;;;;6.72;3.50;;;22.50;97.00;;;;;;5092785;28;20056;-71
2021/08/15 10:42:45;;;;;;;5.10;3.33;;;22.60;95.90;;;;;;5092853;28;20044;-71
2021/08/15 10:45:23;;;;;;;6.78;3.55;;;22.60;96.00;;;;;;5092442;28;20468;-70
2021/08/15 10:48:08;;;;;;;5.93;3.40;;;22.70;95.60;;;;;;5092821;28;20028;-71
2021/08/15 10:50:42;;;;;;;7.07;3.47;;;22.60;95.30;;;;;;5092752;28;20095;-71
2021/08/15 10:53:26;;;;;;;5.25;3.15;;;22.60;95.30;;;;;;5088017;28;20027;-71
2021/08/15 10:55:57;;;;;;;6.60;3.08;;;22.70;95.80;;;;;;5092883;28;20019;-81
2021/08/15 10:58:38;;;;;;;6.80;3.28;;;22.70;96.10;;;;;;5103164;28;20480;-83
2021/08/15 11:01:25;;;;;;;5.95;3.33;;;22.80;96.10;;;;;;5090178;28;20016;-74
2021/08/15 11:03:53;;;;;;;4.90;3.30;;;22.90;95.30;;;;;;5091763;28;20055;-76
2021/08/15 11:06:31;;;;;;;5.78;3.65;;;23.00;95.00;;;;;;5091540;28;20017;-79
2021/08/15 11:08:59;;;;;;;5.70;3.50;;;23.10;95.20;;;;;;5089686;28;20053;-74
2021/08/15 11:11:26;;;;;;;5.93;3.47;;;23.20;95.50;;;;;;5091431;28;20028;-76
2021/08/15 11:14:18;;;;;;;6.05;3.67;;;23.30;95.90;;;;;;5084173;28;20480;-82
2021/08/15 11:16:49;;;;;;;5.72;3.95;;;23.50;95.90;;;;;;5091997;28;20028;-83
2021/08/15 11:19:14;;;;;;;6.72;3.60;;;23.90;95.20;;;;;;5089954;28;20467;-74
2021/08/15 11:22:19;;;;;;;5.07;3.50;;;24.20;94.90;;;;;;5089664;28;20146;-72
2021/08/15 11:24:44;;;;;;;4.35;2.70;;;24.60;93.50;;;;;;5080420;28;20036;-83
2021/08/15 11:27:12;;;;;;;3.42;2.28;;;25.00;92.90;;;;;;5092536;28;20036;-84
2021/08/15 11:29:39;;;;;;;3.58;2.80;;;25.10;91.80;;;;;;5090884;28;20511;-83
2021/08/15 11:32:11;;;;;;;3.30;2.55;;;25.20;91.50;;;;;;5094775;28;20032;-81
2021/08/15 11:34:37;;;;;;;4.15;2.85;;;25.30;91.90;;;;;;5094420;28;20036;-82
2021/08/15 11:37:05;;;;;;;4.13;2.97;;;25.30;91.10;;;;;;5095792;28;20482;-75
2021/08/15 11:39:33;;;;;;;3.20;2.65;;;25.40;91.20;;;;;;5096236;28;20039;-73
2021/08/15 11:42:15;;;;;;;5.32;2.90;;;25.50;91.30;;;;;;5094549;28;20027;-72
2021/08/15 11:45:00;;;;;;;3.72;2.67;;;25.50;91.20;;;;;;5094643;28;20350;-71
2021/08/15 11:47:39;;;;;;;4.22;2.80;;;25.70;91.40;;;;;;5092314;28;20295;-72
2021/08/15 11:50:15;;;;;;;3.47;2.63;;;25.80;91.70;;;;;;5094457;28;20028;-77
2021/08/15 11:52:40;;;;;;;4.32;2.78;;;25.80;91.60;;;;;;5096157;28;20088;-72
2021/08/15 11:55:21;;;;;;;3.33;2.40;;;25.70;92.00;;;;;;5094210;28;20032;-72
2021/08/15 11:57:48;;;;;;;;;;;25.60;92.70;;;;;;5095050;28;20422;-71
2021/08/15 12:00:14;;;;;;;4.22;2.85;;;25.50;92.60;;;;;;5095934;28;20379;-71
2021/08/15 12:02:40;;;;;;;4.82;3.10;;;25.50;92.90;;;;;;5095618;28;20028;-72
2021/08/15 12:05:08;;;;;;;5.28;2.63;;;25.50;93.00;;;;;;5096123;28;20020;-72
2021/08/15 12:07:34;;;;;;;4.78;3.08;;;25.60;93.10;;;;;;5095864;28;20024;-72
2021/08/15 12:10:31;;;;;;;5.97;3.53;;;25.60;92.90;;;;;;5094953;28;20495;-71
2021/08/15 12:13:11;;;;;;;4.95;2.58;;;25.70;93.00;;;;;;5095494;28;20131;-73
2021/08/15 12:15:37;;;;;;;5.90;2.35;;;25.80;93.10;;;;;;5095582;28;20070;-73
2021/08/15 12:18:03;;;;;;;4.30;2.75;;;25.80;93.10;;;;;;5095370;28;20012;-75
2021/08/15 12:20:29;;;;;;;4.72;2.80;;;25.80;93.10;;;;;;5095649;28;20039;-73
2021/08/15 12:23:05;;;;;;;4.78;2.85;;;25.70;93.00;;;;;;5095090;28;20024;-72
2021/08/15 12:25:32;;;;;;;3.53;2.58;;;25.60;93.20;;;;;;5095730;28;20527;-73
2021/08/15 12:28:12;;;;;;;3.42;2.50;;;25.50;93.20;;;;;;5094117;28;20062;-73
2021/08/15 12:30:38;;;;;;;4.43;2.10;;;25.50;93.60;;;;;;5095146;28;20099;-76
2021/08/15 12:33:33;;;;;;;3.92;2.47;;;25.50;93.60;;;;;;5095205;28;20026;-72
2021/08/15 12:36:22;;;;;;;4.55;2.33;;;25.30;93.90;;;;;;5095285;28;20036;-73
2021/08/15 12:38:48;;;;;;;4.85;2.40;;;25.30;94.50;;;;;;5093398;28;20065;-72
2021/08/15 12:41:29;;;;;;;2.33;1.98;;;25.40;94.30;;;;;;5094092;28;20097;-72
2021/08/15 12:44:09;;;;;;;3.95;2.30;;;25.50;94.60;;;;;;5094508;28;20076;-73